createdAt,value
2023-08-15T00:01:19.270Z,0.10
2023-08-15T00:03:49.321Z,0.10
2023-08-15T00:06:18.517Z,0.10
2023-08-15T00:08:47.205Z,0.10
2023-08-15T00:11:17.463Z,0.20
2023-08-15T00:13:47.273Z,0.17
2023-08-15T00:16:15.626Z,0.20
2023-08-15T00:18:44.451Z,0.17
2023-08-15T00:21:12.361Z,0.20
2023-08-15T00:23:40.421Z,0.10
2023-08-15T00:26:09.795Z,0.10
2023-08-15T00:28:39.205Z,0.20
2023-08-15T00:31:13.293Z,0.20
2023-08-15T00:33:42.868Z,0.10
2023-08-15T00:36:11.945Z,0.10
2023-08-15T00:38:46.493Z,0.10
2023-08-15T00:41:19.511Z,0.13
2023-08-15T00:44:17.236Z,0.20
2023-08-15T00:46:45.757Z,0.20
2023-08-15T00:49:36.536Z,0.20
2023-08-15T00:52:07.264Z,0.10
2023-08-15T00:54:35.977Z,0.10
2023-08-15T00:57:12.434Z,0.10
2023-08-15T00:59:45.901Z,0.20
2023-08-15T01:02:15.070Z,0.20
2023-08-15T01:04:45.742Z,0.10
2023-08-15T01:07:14.149Z,0.20
2023-08-15T01:09:42.925Z,0.20
2023-08-15T01:12:21.852Z,0.20
2023-08-15T01:14:54.819Z,0.20
2023-08-15T01:17:33.367Z,0.10
2023-08-15T01:20:08.540Z,0.10
2023-08-15T01:22:38.944Z,0.20
2023-08-15T01:25:09.141Z,0.20
2023-08-15T01:27:37.204Z,0.20
2023-08-15T01:30:05.491Z,0.10
2023-08-15T01:32:40.405Z,0.20
2023-08-15T01:35:22.753Z,0.20
2023-08-15T01:37:57.224Z,0.20
2023-08-15T01:40:31.162Z,0.20
2023-08-15T01:43:01.360Z,0.10
2023-08-15T01:45:30.284Z,0.10
2023-08-15T01:47:58.502Z,0.20
2023-08-15T01:50:26.685Z,0.20
2023-08-15T01:52:57.449Z,0.20
2023-08-15T01:55:27.260Z,0.20
2023-08-15T01:57:55.127Z,0.20
2023-08-15T02:00:22.998Z,0.20
2023-08-15T02:02:51.499Z,0.10
2023-08-15T02:05:19.757Z,0.20
2023-08-15T02:07:47.979Z,0.10
2023-08-15T02:10:16.969Z,0.20
2023-08-15T02:12:47.491Z,0.10
2023-08-15T02:15:16.214Z,0.20
2023-08-15T02:17:44.295Z,0.10
2023-08-15T02:20:13.722Z,0.20
2023-08-15T02:22:42.780Z,0.20
2023-08-15T02:25:11.030Z,0.13
2023-08-15T02:27:39.216Z,0.20
2023-08-15T02:30:10.421Z,0.20
2023-08-15T02:32:38.412Z,0.20
2023-08-15T02:35:08.526Z,0.10
2023-08-15T02:37:36.808Z,0.20
2023-08-15T02:40:12.748Z,0.10
2023-08-15T02:42:40.820Z,0.10
2023-08-15T02:45:15.015Z,0.20
2023-08-15T02:47:46.233Z,0.10
2023-08-15T02:50:15.439Z,0.20
2023-08-15T02:52:44.030Z,0.20
2023-08-15T02:55:12.151Z,0.20
2023-08-15T02:57:40.306Z,0.17
2023-08-15T03:00:14.336Z,0.20
2023-08-15T03:02:42.631Z,0.20
2023-08-15T03:05:10.784Z,0.10
2023-08-15T03:07:38.824Z,0.10
2023-08-15T03:10:07.791Z,0.20
2023-08-15T03:12:36.781Z,0.10
2023-08-15T03:15:06.533Z,0.10
2023-08-15T03:17:36.361Z,0.10
2023-08-15T03:20:09.023Z,0.20
2023-08-15T03:22:37.117Z,0.10
2023-08-15T03:25:05.498Z,0.20
2023-08-15T03:27:33.483Z,0.10
2023-08-15T03:30:01.508Z,0.20
2023-08-15T03:32:29.644Z,0.10
2023-08-15T03:34:59.509Z,0.10
2023-08-15T03:37:27.800Z,0.10
2023-08-15T03:39:56.923Z,0.20
2023-08-15T03:42:25.400Z,0.10
2023-08-15T03:44:53.378Z,0.13
2023-08-15T03:47:21.320Z,0.20
2023-08-15T03:49:49.447Z,0.20
2023-08-15T03:52:18.754Z,0.20
2023-08-15T03:54:46.724Z,0.20
2023-08-15T03:57:16.117Z,0.10
2023-08-15T03:59:44.258Z,0.10
2023-08-15T04:02:12.424Z,0.20
2023-08-15T04:04:41.028Z,0.10
2023-08-15T04:07:08.912Z,0.10
2023-08-15T04:09:39.845Z,0.10
2023-08-15T04:12:08.177Z,0.10
2023-08-15T04:14:36.201Z,0.10
2023-08-15T04:17:06.697Z,0.20
2023-08-15T04:19:34.647Z,0.10
2023-08-15T04:22:02.661Z,0.10
2023-08-15T04:24:30.791Z,0.10
2023-08-15T04:27:02.967Z,0.10
2023-08-15T04:29:31.163Z,0.20
2023-08-15T04:31:59.364Z,0.20
2023-08-15T04:34:29.466Z,0.20
2023-08-15T04:36:58.516Z,0.20
2023-08-15T04:39:28.164Z,0.20
2023-08-15T04:41:56.095Z,0.13
2023-08-15T04:44:25.624Z,0.20
2023-08-15T04:46:54.803Z,0.20
2023-08-15T04:49:24.915Z,0.10
2023-08-15T04:51:53.054Z,0.10
2023-08-15T04:54:21.356Z,0.20
2023-08-15T04:56:50.308Z,0.20
2023-08-15T04:59:18.960Z,0.20
2023-08-15T05:01:48.524Z,0.10
2023-08-15T05:04:16.546Z,0.10
2023-08-15T05:06:45.210Z,0.13
2023-08-15T05:09:13.344Z,0.10
2023-08-15T05:11:41.506Z,0.20
2023-08-15T05:14:13.009Z,0.10
2023-08-15T05:16:40.923Z,0.10
2023-08-15T05:19:12.323Z,0.20
2023-08-15T05:21:42.149Z,0.10
2023-08-15T05:24:10.567Z,0.20
2023-08-15T05:26:38.508Z,0.10
2023-08-15T05:29:06.606Z,0.20
2023-08-15T05:31:34.902Z,0.10
2023-08-15T05:34:02.964Z,0.20
2023-08-15T05:36:33.434Z,0.20
2023-08-15T05:39:05.347Z,0.13
2023-08-15T05:41:34.635Z,0.20
2023-08-15T05:44:02.673Z,0.20
2023-08-15T05:46:31.971Z,0.20
2023-08-15T05:48:59.986Z,0.20
2023-08-15T05:51:28.208Z,0.20
2023-08-15T05:54:03.119Z,0.20
2023-08-15T05:56:31.218Z,0.20
2023-08-15T05:59:06.230Z,0.20
2023-08-15T06:01:41.873Z,0.10
2023-08-15T06:04:10.505Z,0.20
2023-08-15T06:06:38.614Z,0.20
2023-08-15T06:09:08.099Z,0.20
2023-08-15T06:11:38.556Z,0.10
2023-08-15T06:14:06.865Z,0.20
2023-08-15T06:16:36.965Z,0.20
2023-08-15T06:19:05.192Z,0.20
2023-08-15T06:21:33.358Z,0.20
2023-08-15T06:24:01.265Z,0.20
2023-08-15T06:26:33.253Z,0.20
2023-08-15T06:29:01.250Z,0.10
2023-08-15T06:31:30.283Z,0.20
2023-08-15T06:33:58.326Z,0.20
2023-08-15T06:36:27.376Z,0.20
2023-08-15T06:38:56.425Z,0.20
2023-08-15T06:41:26.431Z,0.10
2023-08-15T06:43:59.070Z,0.10
2023-08-15T06:46:27.091Z,0.13
2023-08-15T06:49:09.147Z,0.10
2023-08-15T06:51:38.450Z,0.10
2023-08-15T06:54:14.590Z,0.10
2023-08-15T06:57:01.965Z,0.10
2023-08-15T06:59:46.572Z,0.10
2023-08-15T07:02:21.014Z,0.10
2023-08-15T07:04:54.643Z,0.10
2023-08-15T07:07:23.173Z,0.10
2023-08-15T07:09:53.232Z,0.10
2023-08-15T07:12:52.826Z,0.03
2023-08-15T07:19:16.247Z,0.10
2023-08-15T07:21:44.616Z,0.10
2023-08-15T07:24:23.824Z,0.10
2023-08-15T07:31:08.684Z,0.10
2023-08-15T07:33:41.804Z,0.10
2023-08-15T07:36:28.881Z,0.00
2023-08-15T07:39:08.158Z,0.00
2023-08-15T07:42:07.296Z,0.00
2023-08-15T07:45:07.403Z,0.10
2023-08-15T07:47:47.270Z,0.10
2023-08-15T07:50:23.404Z,0.10
2023-08-15T07:53:03.702Z,0.10
2023-08-15T07:55:38.477Z,0.10
2023-08-15T07:58:07.817Z,0.10
2023-08-15T08:00:36.513Z,0.10
2023-08-15T08:03:08.887Z,0.10
2023-08-15T08:05:38.152Z,0.10
2023-08-15T08:08:09.777Z,0.10
2023-08-15T08:10:44.244Z,0.10
2023-08-15T08:13:33.272Z,0.00
2023-08-15T08:16:01.925Z,0.10
2023-08-15T08:18:30.148Z,0.10
2023-08-15T09:05:12.181Z,0.00
2023-08-15T09:08:11.961Z,0.00
2023-08-15T09:13:56.484Z,0.00
2023-08-15T09:16:27.784Z,0.00
2023-08-15T09:21:55.032Z,0.00
2023-08-15T09:24:49.740Z,0.00
2023-08-15T09:31:01.429Z,0.00
2023-08-15T09:43:04.894Z,0.00
2023-08-15T09:45:34.182Z,0.00
2023-08-15T09:48:07.272Z,0.10
2023-08-15T09:51:12.064Z,0.00
2023-08-15T09:54:02.308Z,0.10
2023-08-15T10:05:46.919Z,0.07
2023-08-15T10:08:34.548Z,0.10
2023-08-15T10:11:49.433Z,0.10
2023-08-15T10:21:51.194Z,0.10
2023-08-15T10:24:20.178Z,0.00
2023-08-15T10:26:51.237Z,0.07
2023-08-15T10:29:19.450Z,0.00
2023-08-15T10:32:10.433Z,0.00
2023-08-15T10:34:41.069Z,0.00
2023-08-15T10:37:32.942Z,0.00
2023-08-15T10:40:16.737Z,0.00
2023-08-15T10:43:12.823Z,0.00
2023-08-15T10:45:49.662Z,0.00
2023-08-15T10:48:47.513Z,0.00
2023-08-15T10:51:33.845Z,0.00
2023-08-15T10:54:12.451Z,0.00
2023-08-15T10:56:42.953Z,0.00
2023-08-15T10:59:14.158Z,0.00
2023-08-15T11:01:44.576Z,0.00
2023-08-15T11:08:29.643Z,0.07
2023-08-15T11:14:03.424Z,0.07
2023-08-15T11:16:38.750Z,0.00
2023-08-15T11:19:07.461Z,0.10
2023-08-15T11:24:37.407Z,0.00
2023-08-15T11:27:27.824Z,0.00
2023-08-15T11:43:37.920Z,0.00
2023-08-15T11:46:52.882Z,0.00
2023-08-15T11:52:51.634Z,0.00
2023-08-15T11:55:30.914Z,0.10
2023-08-15T12:11:33.079Z,0.00
2023-08-15T12:14:42.137Z,0.00
2023-08-15T12:17:39.073Z,0.00
2023-08-15T12:54:18.511Z,0.00
2023-08-15T12:56:59.181Z,0.00
2023-08-15T12:59:31.907Z,0.00
2023-08-15T13:05:49.077Z,0.00
2023-08-15T13:08:30.740Z,0.10
2023-08-15T13:11:30.929Z,0.00
2023-08-15T14:02:41.442Z,0.00
2023-08-15T14:05:58.075Z,0.00
2023-08-15T14:09:04.240Z,0.00
2023-08-15T14:11:42.550Z,0.00
2023-08-15T14:21:15.642Z,0.03
2023-08-15T14:23:49.165Z,0.00
2023-08-15T14:26:18.601Z,0.00
2023-08-15T14:28:47.400Z,0.00
2023-08-15T14:31:16.017Z,0.00
2023-08-15T14:33:52.528Z,0.00
2023-08-15T14:36:21.843Z,0.00
2023-08-15T14:38:55.188Z,0.10
2023-08-15T14:41:25.153Z,0.10
2023-08-15T14:43:55.561Z,0.00
2023-08-15T14:46:26.928Z,0.00
2023-08-15T14:48:57.227Z,0.00
2023-08-15T14:51:32.069Z,0.00
2023-08-15T14:54:03.110Z,0.00
2023-08-15T14:56:31.593Z,0.05
2023-08-15T14:59:03.740Z,0.00
2023-08-15T15:01:33.626Z,0.00
2023-08-15T15:04:03.470Z,0.00
2023-08-15T15:06:35.573Z,0.00
2023-08-15T15:09:03.994Z,0.00
2023-08-15T15:11:32.701Z,0.00
2023-08-15T15:14:02.214Z,0.00
2023-08-15T15:16:30.556Z,0.00
2023-08-15T15:18:59.214Z,0.00
2023-08-15T15:21:29.378Z,0.00
2023-08-15T15:23:57.633Z,0.00
2023-08-15T15:26:26.203Z,0.00
2023-08-15T15:28:54.574Z,0.00
2023-08-15T15:31:24.050Z,0.00
2023-08-15T15:33:52.077Z,0.00
2023-08-15T15:36:20.192Z,0.00
2023-08-15T15:38:54.668Z,0.00
2023-08-15T15:41:23.541Z,0.00
2023-08-15T15:43:56.647Z,0.00
2023-08-15T15:46:25.160Z,0.10
2023-08-15T15:48:54.236Z,0.00
2023-08-15T15:51:22.736Z,0.00
2023-08-15T15:53:53.415Z,0.00
2023-08-15T15:56:27.825Z,0.00
2023-08-15T15:58:55.945Z,0.00
2023-08-15T16:01:24.446Z,0.00
2023-08-15T16:03:52.875Z,0.00
2023-08-15T16:06:23.304Z,0.00
2023-08-15T16:09:22.536Z,0.00
2023-08-15T16:12:06.270Z,0.00
2023-08-15T16:14:36.276Z,0.00
2023-08-15T16:17:05.033Z,0.00
2023-08-15T16:19:35.947Z,0.00
2023-08-15T16:22:11.218Z,0.00
2023-08-15T16:38:35.886Z,0.00
2023-08-15T16:41:03.909Z,0.00
2023-08-15T16:43:32.232Z,0.00
2023-08-15T16:46:00.285Z,0.00
2023-08-15T16:48:29.058Z,0.00
2023-08-15T16:50:56.970Z,0.00
2023-08-15T16:53:25.195Z,0.00
2023-08-15T16:55:54.606Z,0.00
2023-08-15T16:58:22.672Z,0.00
2023-08-15T17:00:52.338Z,0.00
2023-08-15T17:03:21.159Z,0.00
2023-08-15T17:05:50.488Z,0.00
2023-08-15T17:08:18.462Z,0.00
2023-08-15T17:10:46.550Z,0.00
2023-08-15T17:13:15.975Z,0.00
2023-08-15T17:15:43.859Z,0.00
2023-08-15T17:18:11.769Z,0.00
2023-08-15T17:20:46.710Z,0.00
2023-08-15T17:23:14.650Z,0.03
2023-08-15T17:25:42.960Z,0.10
2023-08-15T17:28:11.621Z,0.10
2023-08-15T17:30:41.188Z,0.03
2023-08-15T17:33:09.204Z,0.10
2023-08-15T17:35:37.440Z,0.10
2023-08-15T17:38:06.592Z,0.00
2023-08-15T17:40:35.762Z,0.10
2023-08-15T17:43:03.849Z,0.10
2023-08-15T17:45:31.788Z,0.00
2023-08-15T17:48:01.304Z,0.10
2023-08-15T17:50:29.493Z,0.00
2023-08-15T17:52:57.742Z,0.10
2023-08-15T17:55:27.159Z,0.00
2023-08-15T17:57:55.662Z,0.03
2023-08-15T18:00:24.811Z,0.00
2023-08-15T18:02:56.007Z,0.10
2023-08-15T18:05:26.858Z,0.00
2023-08-15T18:07:54.952Z,0.03
2023-08-15T18:10:24.628Z,0.10
2023-08-15T18:12:52.753Z,0.10
2023-08-15T18:15:25.006Z,0.00
2023-08-15T18:17:54.924Z,0.10
2023-08-15T18:20:36.518Z,0.07
2023-08-15T18:23:05.628Z,0.10
2023-08-15T18:25:33.933Z,0.10
2023-08-15T18:28:03.536Z,0.10
2023-08-15T18:30:32.477Z,0.10
2023-08-15T18:33:01.193Z,0.10
2023-08-15T18:35:30.061Z,0.10
2023-08-15T18:37:59.758Z,0.10
2023-08-15T18:40:29.934Z,0.10
2023-08-15T18:43:00.272Z,0.17
2023-08-15T18:45:32.746Z,0.10
2023-08-15T18:48:01.528Z,0.10
2023-08-15T18:50:30.129Z,0.10
2023-08-15T18:53:01.030Z,0.20
2023-08-15T18:55:29.202Z,0.20
2023-08-15T18:58:12.878Z,0.13
2023-08-15T19:00:45.526Z,0.20
2023-08-15T19:03:14.616Z,0.20
2023-08-15T19:05:47.950Z,0.20
2023-08-15T19:08:19.261Z,0.20
2023-08-15T19:10:47.420Z,0.20
2023-08-15T19:13:22.302Z,0.13
2023-08-15T19:15:51.443Z,0.20
2023-08-15T19:18:19.684Z,0.20
2023-08-15T19:20:48.635Z,0.20
2023-08-15T19:23:27.781Z,0.20
2023-08-15T19:25:58.301Z,0.20
2023-08-15T19:28:28.576Z,0.30
2023-08-15T19:30:56.923Z,0.20
2023-08-15T19:33:25.604Z,0.20
2023-08-15T19:36:01.337Z,0.20
2023-08-15T19:38:39.324Z,0.20
2023-08-15T19:41:07.677Z,0.20
2023-08-15T19:43:35.961Z,0.20
2023-08-15T19:46:04.621Z,0.20
2023-08-15T19:48:32.682Z,0.20
2023-08-15T19:51:04.109Z,0.20
2023-08-15T19:53:34.369Z,0.20
2023-08-15T19:56:03.585Z,0.20
2023-08-15T19:58:32.562Z,0.20
2023-08-15T20:01:02.719Z,0.10
2023-08-15T20:03:31.714Z,0.20
2023-08-15T20:05:59.962Z,0.20
2023-08-15T20:08:28.039Z,0.20
2023-08-15T20:10:58.851Z,0.20
2023-08-15T20:13:27.045Z,0.20
2023-08-15T20:15:58.976Z,0.20
2023-08-15T20:18:27.271Z,0.20
2023-08-15T20:21:08.864Z,0.20
2023-08-15T20:23:45.057Z,0.20
2023-08-15T20:26:21.532Z,0.20
2023-08-15T20:28:50.545Z,0.20
2023-08-15T20:31:18.753Z,0.20
2023-08-15T20:33:46.912Z,0.20
2023-08-15T20:36:15.099Z,0.20
2023-08-15T20:38:43.193Z,0.20
2023-08-15T20:41:11.205Z,0.20
2023-08-15T20:43:40.766Z,0.10
2023-08-15T20:46:09.003Z,0.20
2023-08-15T20:48:36.853Z,0.20
2023-08-15T20:51:05.203Z,0.20
2023-08-15T20:53:33.284Z,0.20
2023-08-15T20:56:04.038Z,0.20
2023-08-15T20:58:33.204Z,0.20
2023-08-15T21:01:05.073Z,0.20
2023-08-15T21:03:33.095Z,0.20
2023-08-15T21:06:01.228Z,0.20
2023-08-15T21:08:30.837Z,0.20
2023-08-15T21:11:07.177Z,0.20
2023-08-15T21:13:35.338Z,0.20
2023-08-15T21:16:04.900Z,0.20
2023-08-15T21:18:35.581Z,0.20
2023-08-15T21:21:03.707Z,0.20
2023-08-15T21:23:33.951Z,0.20
2023-08-15T21:26:02.219Z,0.20
2023-08-15T21:28:31.309Z,0.20
2023-08-15T21:30:59.339Z,0.30
2023-08-15T21:33:29.035Z,0.20
2023-08-15T21:35:57.185Z,0.20
2023-08-15T21:38:25.548Z,0.20
2023-08-15T21:40:55.574Z,0.20
2023-08-15T21:43:23.562Z,0.20
2023-08-15T21:45:52.960Z,0.20
2023-08-15T21:48:21.511Z,0.20
2023-08-15T21:50:55.314Z,0.20
2023-08-15T21:53:23.498Z,0.20
2023-08-15T21:55:51.631Z,0.20
2023-08-15T21:58:20.019Z,0.20
2023-08-15T22:00:48.405Z,0.20
2023-08-15T22:03:16.357Z,0.20
2023-08-15T22:05:48.816Z,0.20
2023-08-15T22:08:18.267Z,0.20
2023-08-15T22:10:47.604Z,0.20
2023-08-15T22:13:17.115Z,0.20
2023-08-15T22:15:46.807Z,0.20
2023-08-15T22:18:20.500Z,0.20
2023-08-15T22:20:49.760Z,0.20
2023-08-15T22:23:19.307Z,0.20
2023-08-15T22:25:48.741Z,0.20
2023-08-15T22:28:17.288Z,0.20
2023-08-15T22:30:46.138Z,0.20
2023-08-15T22:33:15.553Z,0.20
2023-08-15T22:35:44.658Z,0.20
2023-08-15T22:38:12.722Z,0.20
2023-08-15T22:40:42.557Z,0.20
2023-08-15T22:43:10.628Z,0.20
2023-08-15T22:45:43.001Z,0.20
2023-08-15T22:48:11.379Z,0.20
2023-08-15T22:50:39.541Z,0.20
2023-08-15T22:53:07.889Z,0.20
2023-08-15T22:55:37.638Z,0.20
2023-08-15T22:58:07.016Z,0.13
2023-08-15T23:00:34.960Z,0.20
2023-08-15T23:03:03.057Z,0.10
2023-08-15T23:05:33.006Z,0.20
2023-08-15T23:08:01.019Z,0.10
2023-08-15T23:10:28.979Z,0.20
2023-08-15T23:12:57.921Z,0.13
2023-08-15T23:15:27.961Z,0.10
2023-08-15T23:17:56.470Z,0.10
2023-08-15T23:20:24.844Z,0.20
2023-08-15T23:22:52.964Z,0.20
2023-08-15T23:25:20.957Z,0.10
2023-08-15T23:27:51.264Z,0.20
2023-08-15T23:30:21.200Z,0.10
2023-08-15T23:32:50.967Z,0.20
2023-08-15T23:35:19.468Z,0.20
2023-08-15T23:37:49.258Z,0.17
2023-08-15T23:40:18.035Z,0.20
2023-08-15T23:42:47.845Z,0.20
2023-08-15T23:45:17.588Z,0.20
2023-08-15T23:47:46.305Z,0.20
2023-08-15T23:50:15.753Z,0.20
2023-08-15T23:52:43.696Z,0.10
2023-08-15T23:55:11.855Z,0.13
2023-08-15T23:57:40.378Z,0.20
